Time;durP1;ratioP1;P1;durP2;ratioP2;P2;SDS_P1;SDS_P2;PMS_P1;PMS_P2;Temp;Humidity;BMP_temperature;BMP_pressure;BME280_temperature;BME280_humidity;BME280_pressure;Samples;Min_cycle;Max_cycle;Signal;HPM_P1;HPM_P2
2023/08/29 00:00:01;;;;;;;2.63;2.43;;;16.20;99.90;;;;;;5001703;28;20482;-66
2023/08/29 00:02:31;;;;;;;2.50;2.03;;;16.20;99.90;;;;;;4992103;28;20488;-66
2023/08/29 00:04:59;;;;;;;2.90;2.57;;;16.20;99.90;;;;;;4987377;28;20608;-66
2023/08/29 00:07:27;;;;;;;3.70;2.60;;;16.20;99.90;;;;;;4979738;28;20501;-67
2023/08/29 00:09:54;;;;;;;4.80;2.90;;;16.20;99.90;;;;;;4988688;28;20592;-67
2023/08/29 00:12:21;;;;;;;3.23;2.50;;;16.10;99.90;;;;;;4993391;28;20558;-67
2023/08/29 00:14:49;;;;;;;3.30;3.00;;;16.20;99.90;;;;;;4994195;28;20825;-67
2023/08/29 00:17:16;;;;;;;3.10;2.60;;;16.10;99.90;;;;;;4996122;28;20512;-67
2023/08/29 00:19:43;;;;;;;3.03;2.73;;;16.20;99.90;;;;;;4994690;28;20859;-66
2023/08/29 00:22:10;;;;;;;3.40;3.00;;;16.20;99.90;;;;;;4995004;28;20719;-66
2023/08/29 00:24:38;;;;;;;4.50;2.97;;;16.20;99.90;;;;;;4994262;28;20501;-66
2023/08/29 00:27:05;;;;;;;3.60;3.30;;;16.20;99.90;;;;;;4991633;28;20473;-67
2023/08/29 00:29:32;;;;;;;6.17;4.00;;;16.20;99.90;;;;;;4992058;28;20492;-67
2023/08/29 00:31:59;;;;;;;3.90;3.50;;;16.20;99.90;;;;;;4991824;28;20482;-67
2023/08/29 00:34:26;;;;;;;3.93;3.60;;;16.30;99.90;;;;;;4993047;28;20492;-67
2023/08/29 00:36:53;;;;;;;4.00;3.47;;;16.20;99.90;;;;;;4992600;28;20477;-66
2023/08/29 00:39:20;;;;;;;4.10;3.67;;;16.30;99.90;;;;;;4989628;28;20478;-66
2023/08/29 00:41:49;;;;;;;5.53;3.77;;;16.30;99.90;;;;;;4992851;28;21011;-66
2023/08/29 00:44:16;;;;;;;4.40;3.30;;;16.30;99.90;;;;;;4993631;28;20575;-66
2023/08/29 00:46:44;;;;;;;3.77;3.40;;;16.30;99.90;;;;;;4993978;28;20496;-67
2023/08/29 00:49:12;;;;;;;5.37;3.30;;;16.30;99.90;;;;;;4996175;28;20892;-67
2023/08/29 00:51:40;;;;;;;5.50;3.50;;;16.40;99.90;;;;;;4994241;28;20905;-66
2023/08/29 00:54:08;;;;;;;6.67;4.13;;;16.40;99.90;;;;;;4992912;28;20567;-66
2023/08/29 00:56:36;;;;;;;4.47;4.07;;;16.40;99.90;;;;;;4991436;28;20830;-66
2023/08/29 00:59:04;;;;;;;6.50;3.90;;;16.40;99.90;;;;;;4999505;28;20597;-66
2023/08/29 01:01:32;;;;;;;3.20;2.90;;;16.30;99.90;;;;;;4991970;28;21028;-66
2023/08/29 01:03:59;;;;;;;3.60;2.80;;;16.30;99.90;;;;;;4991046;28;20488;-66
2023/08/29 01:06:26;;;;;;;3.73;3.33;;;16.30;99.90;;;;;;4993477;28;20535;-66
2023/08/29 01:08:54;;;;;;;4.30;2.90;;;16.30;99.90;;;;;;4991928;28;20584;-66
2023/08/29 01:11:29;;;;;;;4.13;3.30;;;16.30;99.90;;;;;;4991013;28;20847;-66
2023/08/29 01:14:02;;;;;;;3.83;3.43;;;16.30;99.90;;;;;;4987686;28;21473;-66
2023/08/29 01:16:35;;;;;;;10.00;4.50;;;16.30;99.90;;;;;;4986549;28;21095;-66
2023/08/29 01:19:07;;;;;;;5.00;4.43;;;16.20;99.90;;;;;;4991047;28;20702;-66
2023/08/29 01:21:48;;;;;;;6.90;3.63;;;16.20;99.90;;;;;;4987382;28;20485;-66
2023/08/29 01:24:23;;;;;;;3.53;2.87;;;16.20;99.90;;;;;;4991847;28;20876;-66
2023/08/29 01:26:52;;;;;;;2.83;2.30;;;16.20;99.90;;;;;;4992531;28;21074;-66
2023/08/29 01:29:20;;;;;;;3.70;3.10;;;16.10;99.90;;;;;;4994417;28;20551;-66
2023/08/29 01:31:47;;;;;;;6.07;3.97;;;16.10;99.90;;;;;;4992159;28;20565;-66
2023/08/29 01:34:14;;;;;;;5.13;3.30;;;16.10;99.90;;;;;;4995218;28;20581;-66
2023/08/29 01:36:43;;;;;;;4.30;3.90;;;16.10;99.90;;;;;;4993223;28;20505;-66
2023/08/29 01:39:10;;;;;;;4.20;3.60;;;16.00;99.90;;;;;;4994383;28;20493;-66
2023/08/29 01:41:37;;;;;;;4.33;3.10;;;16.00;99.90;;;;;;4989641;28;20569;-67
2023/08/29 01:44:06;;;;;;;3.20;2.90;;;16.00;99.90;;;;;;4991312;28;20483;-67
2023/08/29 01:46:33;;;;;;;3.53;3.00;;;15.90;99.90;;;;;;4992964;28;20557;-66
2023/08/29 01:49:02;;;;;;;3.23;2.93;;;15.90;99.90;;;;;;4991963;28;20485;-66
2023/08/29 01:51:30;;;;;;;2.90;2.60;;;15.80;99.90;;;;;;4997621;28;20757;-66
2023/08/29 01:53:57;;;;;;;4.03;2.37;;;15.80;99.90;;;;;;4980394;28;20563;-66
2023/08/29 01:56:28;;;;;;;2.60;2.37;;;15.80;99.90;;;;;;4990357;28;20575;-66
2023/08/29 01:58:57;;;;;;;2.60;2.40;;;15.80;99.90;;;;;;4990609;28;20480;-66
2023/08/29 02:01:25;;;;;;;4.30;3.53;;;15.70;99.90;;;;;;4989964;28;20564;-66
2023/08/29 02:03:52;;;;;;;2.90;2.70;;;15.70;99.90;;;;;;4993011;28;20720;-66
2023/08/29 02:06:19;;;;;;;3.90;3.20;;;15.70;99.90;;;;;;4994642;28;20484;-66
2023/08/29 02:08:46;;;;;;;3.20;2.90;;;15.70;99.90;;;;;;4995430;28;21069;-66
2023/08/29 02:11:13;;;;;;;3.10;2.90;;;15.60;99.90;;;;;;5004051;28;20604;-66
2023/08/29 02:13:40;;;;;;;5.10;3.30;;;15.60;99.90;;;;;;4989882;28;20581;-66
2023/08/29 02:16:07;;;;;;;3.23;3.03;;;15.40;99.90;;;;;;4993414;28;20472;-66
2023/08/29 02:18:35;;;;;;;3.80;3.17;;;15.30;99.90;;;;;;4997055;28;20873;-66
2023/08/29 02:21:02;;;;;;;3.23;2.93;;;15.20;99.90;;;;;;5000195;28;20468;-66
2023/08/29 02:23:29;;;;;;;5.77;3.93;;;15.20;99.90;;;;;;4997280;28;20563;-67
2023/08/29 02:26:06;;;;;;;4.07;3.77;;;15.30;99.90;;;;;;4992794;28;20922;-67
2023/08/29 02:28:35;;;;;;;8.03;4.40;;;15.40;99.90;;;;;;4994852;28;20512;-66
2023/08/29 02:31:05;;;;;;;6.77;3.50;;;15.50;99.90;;;;;;4995446;28;20478;-66
2023/08/29 02:33:34;;;;;;;3.23;2.60;;;15.50;99.90;;;;;;4995659;28;20496;-66
2023/08/29 02:36:04;;;;;;;3.90;3.50;;;15.50;99.90;;;;;;4996823;28;21405;-66
2023/08/29 02:38:31;;;;;;;4.03;3.40;;;15.50;99.90;;;;;;4994385;28;20481;-66
2023/08/29 02:40:58;;;;;;;6.67;3.40;;;15.50;99.90;;;;;;4983578;28;20854;-66
2023/08/29 02:43:25;;;;;;;4.77;2.80;;;15.50;99.90;;;;;;4990726;28;21026;-66
2023/08/29 02:45:52;;;;;;;3.60;3.30;;;15.50;99.90;;;;;;4980608;28;20502;-66
2023/08/29 02:48:19;;;;;;;4.13;3.73;;;15.60;99.90;;;;;;4982078;28;20569;-66
2023/08/29 02:50:48;;;;;;;5.73;3.93;;;15.60;99.90;;;;;;4987631;28;20562;-66
2023/08/29 02:53:16;;;;;;;5.80;4.60;;;15.50;99.90;;;;;;4987151;28;21420;-66
2023/08/29 02:55:43;;;;;;;5.13;4.60;;;15.50;99.90;;;;;;4979166;28;21295;-66
2023/08/29 02:58:10;;;;;;;4.00;3.70;;;15.50;99.90;;;;;;4993054;28;20516;-66
2023/08/29 03:00:37;;;;;;;4.30;3.90;;;15.50;99.90;;;;;;4990063;28;20498;-65
2023/08/29 03:03:05;;;;;;;4.80;4.13;;;15.50;99.90;;;;;;4989996;28;20480;-65
2023/08/29 03:05:32;;;;;;;3.50;3.20;;;15.40;99.90;;;;;;4988227;28;20601;-65
2023/08/29 03:08:01;;;;;;;4.17;3.80;;;15.40;99.90;;;;;;4987765;28;20561;-65
2023/08/29 03:10:30;;;;;;;3.30;3.00;;;15.50;99.90;;;;;;4987879;28;21045;-65
2023/08/29 03:12:57;;;;;;;4.20;3.83;;;15.50;99.90;;;;;;4991008;28;20508;-65
2023/08/29 03:15:24;;;;;;;9.40;4.37;;;15.50;99.90;;;;;;4978315;28;20588;-65
2023/08/29 03:17:51;;;;;;;3.33;3.03;;;15.60;99.90;;;;;;4985407;28;20568;-65
2023/08/29 03:20:18;;;;;;;8.73;3.50;;;15.60;99.90;;;;;;5000932;28;20480;-65
2023/08/29 03:22:46;;;;;;;4.03;3.40;;;15.60;99.90;;;;;;4993106;28;20973;-65
2023/08/29 03:25:13;;;;;;;4.17;3.87;;;15.50;99.90;;;;;;4983967;28;20596;-65
2023/08/29 03:27:41;;;;;;;3.40;3.10;;;15.60;99.90;;;;;;4991631;28;20465;-65
2023/08/29 03:30:09;;;;;;;4.10;3.70;;;15.40;99.90;;;;;;4991785;28;20481;-65
2023/08/29 03:32:36;;;;;;;3.40;2.57;;;15.40;99.90;;;;;;4994125;28;20561;-65
2023/08/29 03:35:03;;;;;;;4.37;3.80;;;15.40;99.90;;;;;;4994091;28;20673;-65
2023/08/29 03:37:29;;;;;;;4.70;4.23;;;15.30;99.90;;;;;;4984083;28;20604;-65
2023/08/29 03:39:56;;;;;;;3.90;3.50;;;15.20;99.90;;;;;;4981621;28;20473;-65
2023/08/29 03:42:23;;;;;;;3.97;3.57;;;15.20;99.90;;;;;;4983969;28;20515;-65
2023/08/29 03:44:51;;;;;;;3.37;3.07;;;15.30;99.90;;;;;;4971594;28;20488;-65
2023/08/29 03:47:18;;;;;;;4.20;3.80;;;15.20;99.90;;;;;;4985842;28;20492;-65
2023/08/29 03:49:45;;;;;;;4.33;3.50;;;15.20;99.90;;;;;;4993164;28;20473;-65
2023/08/29 03:52:20;;;;;;;4.30;3.60;;;15.10;99.90;;;;;;4985503;28;20484;-66
2023/08/29 03:54:47;;;;;;;4.00;3.60;;;15.10;99.90;;;;;;4988597;28;20568;-66
2023/08/29 03:57:14;;;;;;;4.07;3.67;;;15.10;99.90;;;;;;4983273;28;20482;-66
2023/08/29 03:59:41;;;;;;;4.53;4.13;;;15.10;99.90;;;;;;4996494;28;20482;-66
2023/08/29 04:02:10;;;;;;;4.83;4.43;;;15.20;99.90;;;;;;4985735;28;20494;-66
2023/08/29 04:04:36;;;;;;;5.60;5.00;;;15.10;99.90;;;;;;4991506;28;20593;-66
2023/08/29 04:07:04;;;;;;;5.40;4.90;;;15.10;99.90;;;;;;4985752;28;21187;-66
2023/08/29 04:09:31;;;;;;;4.47;4.07;;;15.10;99.90;;;;;;4994874;28;20552;-66
2023/08/29 04:11:58;;;;;;;3.83;3.37;;;15.10;99.90;;;;;;4989803;28;20477;-67
2023/08/29 04:14:25;;;;;;;4.87;4.47;;;15.20;99.90;;;;;;4986324;28;20573;-67
2023/08/29 04:16:52;;;;;;;4.37;3.97;;;15.30;99.90;;;;;;4990085;28;20560;-67
2023/08/29 04:19:20;;;;;;;9.50;4.37;;;15.40;99.90;;;;;;5006613;28;20542;-67
2023/08/29 04:21:48;;;;;;;4.30;4.00;;;15.50;99.90;;;;;;4979824;28;20568;-67
2023/08/29 04:24:15;;;;;;;4.00;3.60;;;15.50;99.90;;;;;;4984624;28;21269;-67
2023/08/29 04:26:42;;;;;;;3.87;3.50;;;15.50;99.90;;;;;;5000238;28;20478;-66
2023/08/29 04:29:09;;;;;;;5.37;3.80;;;15.60;99.90;;;;;;4988674;28;20474;-66
2023/08/29 04:31:35;;;;;;;4.87;4.10;;;15.60;99.90;;;;;;5000775;28;20465;-66
2023/08/29 04:34:02;;;;;;;4.47;3.77;;;15.60;99.90;;;;;;4997638;28;20580;-67
2023/08/29 04:36:32;;;;;;;4.27;3.87;;;15.60;99.90;;;;;;4989982;28;20483;-66
2023/08/29 04:38:59;;;;;;;3.53;3.23;;;15.70;99.90;;;;;;4998364;28;21217;-66
2023/08/29 04:41:26;;;;;;;4.20;3.80;;;15.70;99.90;;;;;;4992379;28;20485;-66
2023/08/29 04:43:53;;;;;;;8.93;4.43;;;15.70;99.90;;;;;;4983761;28;20537;-66
2023/08/29 04:46:20;;;;;;;4.20;3.90;;;15.70;99.90;;;;;;4985643;28;20466;-66
2023/08/29 04:48:46;;;;;;;4.13;3.57;;;15.70;99.90;;;;;;4992112;28;20580;-66
2023/08/29 04:51:13;;;;;;;4.40;4.00;;;15.70;99.90;;;;;;4992779;28;20557;-66
2023/08/29 04:53:41;;;;;;;4.83;4.27;;;15.70;99.90;;;;;;4984567;28;20577;-66
2023/08/29 04:56:08;;;;;;;4.77;4.37;;;15.70;99.90;;;;;;4984320;28;20481;-66
2023/08/29 04:58:35;;;;;;;4.67;4.23;;;15.70;99.90;;;;;;4986666;28;20479;-66
2023/08/29 05:01:03;;;;;;;4.30;3.90;;;15.70;99.90;;;;;;4997329;28;20484;-66
2023/08/29 05:03:30;;;;;;;4.10;3.70;;;15.70;99.90;;;;;;4992244;28;21120;-66
2023/08/29 05:05:57;;;;;;;4.17;3.77;;;15.60;99.90;;;;;;4981718;28;21057;-66
2023/08/29 05:08:24;;;;;;;4.57;4.13;;;15.50;99.90;;;;;;4976288;28;20493;-66
2023/08/29 05:10:52;;;;;;;4.00;3.60;;;15.50;99.90;;;;;;4987525;28;20502;-66
2023/08/29 05:13:19;;;;;;;3.77;3.07;;;15.50;99.90;;;;;;4987941;28;20548;-66
2023/08/29 05:15:46;;;;;;;4.57;4.10;;;15.40;99.90;;;;;;4987487;28;20875;-66
2023/08/29 05:18:13;;;;;;;5.80;4.00;;;15.30;99.90;;;;;;4990875;28;20478;-66
2023/08/29 05:20:40;;;;;;;4.17;3.77;;;15.30;99.90;;;;;;4996932;28;20482;-65
2023/08/29 05:23:07;;;;;;;3.77;3.27;;;15.30;99.90;;;;;;4983665;28;20577;-65
2023/08/29 05:25:34;;;;;;;7.43;4.50;;;15.30;99.90;;;;;;4988219;28;20576;-65
2023/08/29 05:28:02;;;;;;;5.40;4.10;;;15.40;99.90;;;;;;4989239;28;20490;-65
2023/08/29 05:30:30;;;;;;;7.00;5.30;;;15.40;99.90;;;;;;4995919;28;20517;-65
2023/08/29 05:32:57;;;;;;;7.67;6.50;;;15.40;99.90;;;;;;4986954;28;20544;-65
2023/08/29 05:35:24;;;;;;;4.10;3.70;;;15.50;99.90;;;;;;4974818;28;20496;-65
2023/08/29 05:37:51;;;;;;;6.20;4.07;;;15.50;99.90;;;;;;4992554;28;20498;-65
2023/08/29 05:40:17;;;;;;;5.07;4.57;;;15.60;99.90;;;;;;5006342;28;20838;-65
2023/08/29 05:42:44;;;;;;;5.10;4.43;;;15.60;99.90;;;;;;4992804;28;20496;-65
2023/08/29 05:45:13;;;;;;;4.37;3.97;;;15.70;99.90;;;;;;4987866;28;20514;-65
2023/08/29 05:47:40;;;;;;;9.30;4.87;;;15.60;99.90;;;;;;4985523;28;20478;-65
2023/08/29 05:50:08;;;;;;;5.63;4.60;;;15.60;99.90;;;;;;4998659;28;21037;-65
2023/08/29 05:52:35;;;;;;;5.80;4.70;;;15.60;99.90;;;;;;4996186;28;20680;-65
2023/08/29 05:55:02;;;;;;;7.57;5.40;;;15.70;99.90;;;;;;4987685;28;20521;-65
2023/08/29 05:57:30;;;;;;;8.10;5.80;;;15.70;99.90;;;;;;4985010;28;20496;-65
2023/08/29 05:59:57;;;;;;;6.10;5.53;;;15.80;99.90;;;;;;4988294;28;20493;-65
2023/08/29 06:02:25;;;;;;;6.83;6.17;;;15.90;99.90;;;;;;4991143;28;20489;-65
2023/08/29 06:04:52;;;;;;;8.17;6.97;;;15.90;99.90;;;;;;4987407;28;20678;-65
2023/08/29 06:07:19;;;;;;;7.80;6.33;;;16.00;99.90;;;;;;4989384;28;20571;-65
2023/08/29 06:09:46;;;;;;;8.60;7.40;;;16.00;99.90;;;;;;4990582;28;20876;-66
2023/08/29 06:12:13;;;;;;;9.93;6.97;;;16.20;99.90;;;;;;4981530;28;20518;-66
2023/08/29 06:14:40;;;;;;;10.43;8.00;;;16.10;99.90;;;;;;4981842;28;20478;-66
2023/08/29 06:17:06;;;;;;;11.63;9.03;;;16.20;99.90;;;;;;4980835;28;20484;-66
2023/08/29 06:19:35;;;;;;;7.50;6.60;;;16.20;99.90;;;;;;4984850;28;20561;-66
2023/08/29 06:22:01;;;;;;;12.73;8.13;;;16.30;99.90;;;;;;4983431;28;20688;-66
2023/08/29 06:24:28;;;;;;;8.77;7.87;;;16.30;99.90;;;;;;5004359;28;20477;-66
2023/08/29 06:26:55;;;;;;;10.23;8.40;;;16.30;99.90;;;;;;4987073;28;20565;-66
2023/08/29 06:29:22;;;;;;;10.67;9.10;;;16.30;99.90;;;;;;4992041;28;20678;-66
2023/08/29 06:31:49;;;;;;;10.70;8.10;;;16.30;99.90;;;;;;4989027;28;20558;-65
2023/08/29 06:34:16;;;;;;;13.27;10.67;;;16.40;99.90;;;;;;4988633;28;20509;-65
2023/08/29 06:36:44;;;;;;;15.37;11.67;;;16.50;99.90;;;;;;4999880;28;20832;-65
2023/08/29 06:39:11;;;;;;;15.30;10.97;;;16.60;99.90;;;;;;4997715;28;20505;-65
2023/08/29 06:41:38;;;;;;;17.57;11.47;;;16.70;99.90;;;;;;4990106;28;20826;-65
2023/08/29 06:44:06;;;;;;;19.20;14.50;;;16.80;99.90;;;;;;4987618;28;20502;-65
2023/08/29 06:46:34;;;;;;;19.33;13.07;;;16.90;99.90;;;;;;4995216;28;21192;-65
2023/08/29 06:49:01;;;;;;;22.43;11.87;;;17.00;99.90;;;;;;4980311;28;20899;-65
2023/08/29 06:51:27;;;;;;;19.13;12.43;;;17.00;99.90;;;;;;5000698;28;20493;-65
2023/08/29 06:53:56;;;;;;;20.10;13.60;;;17.20;99.90;;;;;;4987752;28;20591;-65
2023/08/29 06:56:23;;;;;;;18.73;13.17;;;17.30;99.90;;;;;;5000974;28;20956;-65
2023/08/29 06:58:50;;;;;;;16.07;12.40;;;17.50;99.90;;;;;;4992003;28;20565;-66
2023/08/29 07:01:17;;;;;;;20.50;13.20;;;17.70;99.90;;;;;;4997633;28;20763;-66
2023/08/29 07:03:44;;;;;;;16.27;11.70;;;17.90;99.90;;;;;;4991448;28;20878;-66
2023/08/29 07:06:11;;;;;;;18.03;12.20;;;18.00;99.90;;;;;;4984564;28;20479;-66
2023/08/29 07:08:39;;;;;;;14.90;11.80;;;18.20;99.90;;;;;;4986381;28;20581;-66
2023/08/29 07:11:08;;;;;;;14.40;11.23;;;18.30;99.90;;;;;;4993171;28;20567;-66
2023/08/29 07:13:36;;;;;;;17.30;11.87;;;18.60;99.90;;;;;;4989026;28;20931;-66
2023/08/29 07:16:04;;;;;;;23.63;10.83;;;18.70;99.90;;;;;;4982693;28;20866;-66
2023/08/29 07:18:32;;;;;;;12.67;9.50;;;18.90;99.90;;;;;;4986266;28;20487;-66
2023/08/29 07:20:59;;;;;;;16.73;11.40;;;19.00;99.90;;;;;;4983768;28;20686;-65
2023/08/29 07:23:28;;;;;;;15.20;11.07;;;19.10;99.90;;;;;;4989726;28;20492;-66
2023/08/29 07:25:55;;;;;;;14.97;11.50;;;19.20;99.90;;;;;;4987389;28;21076;-65
2023/08/29 07:28:23;;;;;;;14.20;11.27;;;19.30;99.90;;;;;;4983103;28;20480;-66
2023/08/29 07:30:51;;;;;;;16.03;12.37;;;19.40;99.90;;;;;;4995901;28;20483;-66
2023/08/29 07:33:18;;;;;;;13.63;10.90;;;19.50;99.90;;;;;;4976368;28;21041;-66
2023/08/29 07:35:47;;;;;;;15.40;10.87;;;19.70;99.90;;;;;;4989651;28;20561;-66
2023/08/29 07:38:14;;;;;;;14.23;11.50;;;19.70;99.90;;;;;;4978013;28;20569;-66
2023/08/29 07:40:41;;;;;;;18.90;12.70;;;19.70;99.90;;;;;;4987964;28;21235;-67
2023/08/29 07:43:09;;;;;;;22.27;12.17;;;19.70;99.90;;;;;;4986504;28;21012;-67
2023/08/29 07:45:37;;;;;;;13.20;11.10;;;19.90;99.90;;;;;;4986628;28;20482;-67
2023/08/29 07:48:05;;;;;;;17.40;12.40;;;20.20;99.90;;;;;;4981265;28;20521;-67
2023/08/29 07:50:32;;;;;;;14.17;12.27;;;20.40;99.90;;;;;;4993492;28;20833;-67
2023/08/29 07:52:59;;;;;;;18.23;11.60;;;20.60;99.90;;;;;;4982413;28;20984;-67
2023/08/29 07:55:26;;;;;;;19.90;11.83;;;20.70;99.90;;;;;;4986454;28;20486;-67
2023/08/29 07:57:53;;;;;;;15.60;11.93;;;20.90;99.90;;;;;;4983724;28;20585;-66
2023/08/29 08:00:21;;;;;;;15.20;11.83;;;20.90;99.80;;;;;;4998484;28;20503;-67
2023/08/29 08:02:49;;;;;;;17.97;11.80;;;21.00;99.80;;;;;;4993505;28;20477;-67
2023/08/29 08:05:17;;;;;;;15.87;11.20;;;21.10;99.90;;;;;;4983463;28;20484;-67
2023/08/29 08:07:46;;;;;;;13.13;11.07;;;21.30;99.70;;;;;;4984611;28;20486;-67
2023/08/29 08:10:14;;;;;;;13.77;11.53;;;21.40;99.90;;;;;;4981966;28;20474;-67
2023/08/29 08:12:42;;;;;;;10.80;9.70;;;21.60;99.70;;;;;;4999334;28;20481;-67
2023/08/29 08:15:10;;;;;;;13.80;10.97;;;21.80;99.40;;;;;;4998339;28;20474;-67
2023/08/29 08:17:37;;;;;;;16.67;10.50;;;22.00;99.40;;;;;;4985568;28;20576;-67
2023/08/29 08:20:08;;;;;;;15.47;11.60;;;22.30;99.50;;;;;;4986557;28;20501;-68
2023/08/29 08:22:35;;;;;;;13.50;10.10;;;22.40;98.90;;;;;;4990148;28;20452;-68
2023/08/29 08:25:02;;;;;;;11.87;9.33;;;22.50;98.00;;;;;;4992186;28;20512;-68
2023/08/29 08:27:30;;;;;;;11.00;9.10;;;22.70;99.10;;;;;;4976790;28;20522;-68
2023/08/29 08:29:57;;;;;;;21.90;9.83;;;22.90;98.90;;;;;;5014793;28;20898;-68
2023/08/29 08:32:24;;;;;;;12.80;9.17;;;23.00;98.40;;;;;;4997217;28;20569;-68
2023/08/29 08:34:51;;;;;;;12.17;8.20;;;23.10;97.80;;;;;;4988472;28;20521;-67
2023/08/29 08:37:19;;;;;;;8.83;8.00;;;23.20;97.50;;;;;;4988923;28;20464;-67
2023/08/29 08:39:46;;;;;;;12.93;8.20;;;23.40;97.60;;;;;;4992667;28;20559;-68
2023/08/29 08:42:15;;;;;;;11.90;8.57;;;23.60;97.20;;;;;;4989497;28;20491;-68
2023/08/29 08:44:43;;;;;;;8.67;6.90;;;23.70;96.10;;;;;;4992172;28;20489;-67
2023/08/29 08:47:11;;;;;;;9.27;7.47;;;23.90;97.10;;;;;;4987237;28;20478;-68
2023/08/29 08:49:38;;;;;;;7.90;7.10;;;24.00;96.50;;;;;;4985446;28;20852;-67
2023/08/29 08:52:06;;;;;;;10.93;7.30;;;24.20;96.40;;;;;;4988346;28;20533;-67
2023/08/29 08:54:35;;;;;;;7.20;6.47;;;24.40;97.00;;;;;;4989366;28;20496;-68
2023/08/29 08:57:02;;;;;;;8.23;6.00;;;24.50;95.60;;;;;;4986316;28;20844;-67
2023/08/29 08:59:29;;;;;;;11.87;5.90;;;24.60;95.20;;;;;;4987250;28;20464;-67
2023/08/29 09:01:56;;;;;;;7.50;6.27;;;24.60;94.90;;;;;;4994654;28;20549;-67
2023/08/29 09:04:23;;;;;;;7.17;6.47;;;24.30;94.00;;;;;;4982850;28;20981;-67
2023/08/29 09:06:50;;;;;;;5.43;4.93;;;24.00;94.20;;;;;;4989897;28;20644;-66
2023/08/29 09:09:18;;;;;;;7.30;5.67;;;24.00;95.00;;;;;;4992776;28;20464;-66
2023/08/29 09:11:52;;;;;;;5.23;4.73;;;23.90;94.70;;;;;;4985921;28;20482;-67
2023/08/29 09:14:20;;;;;;;6.03;4.70;;;23.80;93.60;;;;;;4992794;28;20459;-66
2023/08/29 09:16:47;;;;;;;5.70;5.10;;;23.70;94.80;;;;;;4986876;28;20485;-67
2023/08/29 09:19:16;;;;;;;5.50;3.50;;;23.60;94.90;;;;;;4987609;28;20486;-66
2023/08/29 09:21:43;;;;;;;6.87;5.67;;;23.60;95.30;;;;;;4989765;28;20497;-67
2023/08/29 09:24:13;;;;;;;5.40;4.90;;;23.50;94.70;;;;;;4991680;28;21036;-67
2023/08/29 09:26:41;;;;;;;10.83;5.40;;;23.40;94.10;;;;;;4984851;28;20456;-67
2023/08/29 09:29:19;;;;;;;5.43;4.30;;;23.20;94.50;;;;;;4980535;28;20491;-66
2023/08/29 09:31:47;;;;;;;4.37;3.97;;;23.10;94.20;;;;;;4982838;28;20596;-66
2023/08/29 09:34:25;;;;;;;7.60;3.77;;;23.00;94.60;;;;;;4986132;28;20445;-66
2023/08/29 09:36:53;;;;;;;4.63;4.07;;;23.10;94.20;;;;;;4984112;28;21219;-66
2023/08/29 09:39:20;;;;;;;5.00;4.50;;;23.20;95.00;;;;;;4983892;28;21141;-67
2023/08/29 09:42:04;;;;;;;4.23;3.80;;;22.90;93.60;;;;;;4996779;28;21036;-67
2023/08/29 09:44:37;;;;;;;4.77;4.23;;;22.70;94.50;;;;;;4983020;28;20451;-66
2023/08/29 09:47:04;;;;;;;5.40;4.17;;;22.70;95.00;;;;;;4977677;28;20586;-66
2023/08/29 09:49:33;;;;;;;5.30;4.20;;;22.80;94.60;;;;;;4991191;28;20528;-66
2023/08/29 09:52:02;;;;;;;5.13;4.60;;;22.60;94.20;;;;;;4988742;28;20475;-66
2023/08/29 09:54:33;;;;;;;4.70;4.17;;;22.70;96.50;;;;;;4985752;28;21034;-66
2023/08/29 09:57:05;;;;;;;6.70;4.50;;;23.10;95.00;;;;;;4990680;28;20895;-67
2023/08/29 09:59:35;;;;;;;7.33;4.30;;;23.00;94.00;;;;;;4982816;28;21230;-67
2023/08/29 10:02:04;;;;;;;10.50;4.13;;;22.90;93.30;;;;;;4974494;28;20461;-67
2023/08/29 10:04:33;;;;;;;5.30;4.20;;;23.20;95.90;;;;;;4980122;28;21075;-67
2023/08/29 10:07:01;;;;;;;6.03;5.13;;;23.40;95.30;;;;;;4985204;28;20575;-67
2023/08/29 10:09:31;;;;;;;4.30;3.90;;;23.40;94.90;;;;;;4989977;28;20456;-67
2023/08/29 10:11:59;;;;;;;3.20;2.90;;;23.40;95.10;;;;;;4991324;28;20870;-67
2023/08/29 10:14:28;;;;;;;3.57;3.13;;;23.40;94.70;;;;;;4989113;28;20457;-67
2023/08/29 10:16:59;;;;;;;4.13;3.70;;;23.40;94.50;;;;;;4986568;28;20481;-68
2023/08/29 10:19:30;;;;;;;5.20;4.50;;;23.20;95.20;;;;;;4989187;28;20635;-66
2023/08/29 10:21:58;;;;;;;4.80;4.30;;;22.90;96.70;;;;;;4989329;28;20509;-66
2023/08/29 10:24:27;;;;;;;4.53;3.80;;;22.60;97.10;;;;;;4992049;28;20452;-66
2023/08/29 10:26:55;;;;;;;4.90;4.47;;;22.40;97.40;;;;;;4991652;28;20564;-66
2023/08/29 10:29:23;;;;;;;4.63;3.93;;;22.10;97.50;;;;;;4991885;28;20569;-66
2023/08/29 10:31:50;;;;;;;5.47;4.13;;;21.80;97.90;;;;;;4993446;28;20900;-67
2023/08/29 10:34:19;;;;;;;4.93;4.10;;;21.40;97.70;;;;;;4992284;28;20507;-68
2023/08/29 10:36:46;;;;;;;8.60;4.30;;;21.20;98.20;;;;;;4991810;28;20492;-67
2023/08/29 10:39:15;;;;;;;7.80;3.53;;;21.00;98.80;;;;;;4989384;28;20475;-67
2023/08/29 10:41:47;;;;;;;4.40;4.00;;;20.80;98.80;;;;;;4991070;28;21007;-67
2023/08/29 10:44:36;;;;;;;4.77;2.90;;;20.70;99.20;;;;;;4991889;28;20844;-66
2023/08/29 10:47:19;;;;;;;3.70;2.47;;;20.60;99.10;;;;;;4992404;28;20493;-66
2023/08/29 10:49:48;;;;;;;3.37;2.73;;;20.50;99.70;;;;;;4991878;28;20513;-67
2023/08/29 10:52:18;;;;;;;2.60;2.20;;;20.50;99.70;;;;;;4988238;28;20978;-67
2023/08/29 10:54:46;;;;;;;3.53;2.80;;;20.50;99.50;;;;;;4988354;28;21038;-67
2023/08/29 10:57:27;;;;;;;3.67;2.97;;;20.50;99.20;;;;;;4993690;28;20457;-66
2023/08/29 10:59:54;;;;;;;4.30;2.67;;;20.50;99.30;;;;;;4988458;28;20452;-67
2023/08/29 11:02:27;;;;;;;2.10;1.60;;;20.40;98.90;;;;;;4989884;28;20572;-67
2023/08/29 11:05:11;;;;;;;2.37;1.63;;;20.10;98.10;;;;;;4989744;28;20492;-67
2023/08/29 11:07:39;;;;;;;2.43;1.57;;;20.00;99.00;;;;;;5001441;28;20481;-67
2023/08/29 11:10:20;;;;;;;2.53;2.00;;;20.10;99.90;;;;;;4988825;28;20481;-64
2023/08/29 11:13:07;;;;;;;2.70;1.70;;;20.20;99.90;;;;;;4991283;28;21054;-65
2023/08/29 11:16:07;;;;;;;9.23;1.63;;;20.50;99.90;;;;;;4993211;28;20577;-65
2023/08/29 11:18:34;;;;;;;2.37;1.37;;;20.70;99.90;;;;;;4978098;28;20478;-65
2023/08/29 11:21:10;;;;;;;2.20;1.57;;;20.70;97.90;;;;;;5004400;28;20896;-65
2023/08/29 11:23:39;;;;;;;2.87;1.67;;;20.80;98.60;;;;;;4976628;28;21083;-66
2023/08/29 11:26:08;;;;;;;2.60;2.40;;;21.00;99.40;;;;;;4993697;28;20493;-66
2023/08/29 11:28:40;;;;;;;3.40;3.10;;;20.90;99.00;;;;;;4987785;28;20474;-66
2023/08/29 11:31:07;;;;;;;2.20;1.70;;;21.00;98.80;;;;;;4990863;28;20451;-66
2023/08/29 11:33:35;;;;;;;3.20;1.83;;;21.10;98.30;;;;;;4994164;28;20572;-65
2023/08/29 11:36:59;;;;;;;2.30;1.47;;;21.10;99.00;;;;;;4993572;28;20482;-65
2023/08/29 11:39:27;;;;;;;1.63;0.90;;;21.20;99.60;;;;;;4993166;28;20813;-65
2023/08/29 11:41:55;;;;;;;1.70;1.00;;;21.20;96.10;;;;;;4989924;28;20599;-66
2023/08/29 11:44:27;;;;;;;1.80;1.10;;;21.40;97.50;;;;;;4989191;28;20484;-66
2023/08/29 11:46:57;;;;;;;1.70;1.00;;;21.50;98.50;;;;;;4990495;28;20538;-65
2023/08/29 11:49:24;;;;;;;1.83;1.20;;;21.70;97.60;;;;;;4983051;28;21291;-66
2023/08/29 11:51:51;;;;;;;1.80;1.00;;;21.90;96.00;;;;;;4990290;28;20906;-65
2023/08/29 11:54:41;;;;;;;2.23;1.03;;;22.00;93.70;;;;;;4988880;28;21030;-66
2023/08/29 11:57:10;;;;;;;1.90;1.10;;;22.30;93.80;;;;;;4981942;28;20942;-65
2023/08/29 11:59:41;;;;;;;5.20;2.10;;;22.50;97.10;;;;;;4981903;28;20581;-65
2023/08/29 12:02:09;;;;;;;6.37;2.50;;;22.90;96.80;;;;;;4984332;28;20474;-65
2023/08/29 12:04:39;;;;;;;3.43;3.10;;;23.10;96.80;;;;;;4991525;28;20453;-66
2023/08/29 12:07:09;;;;;;;4.97;4.00;;;23.30;96.50;;;;;;4997004;28;20537;-66
2023/08/29 12:09:37;;;;;;;5.13;3.90;;;23.50;96.30;;;;;;4994707;28;20460;-66
2023/08/29 12:12:08;;;;;;;4.30;3.77;;;23.50;96.90;;;;;;4990785;28;20470;-66
2023/08/29 12:14:50;;;;;;;7.13;3.73;;;23.40;97.30;;;;;;4997217;28;20923;-66
2023/08/29 12:17:17;;;;;;;3.13;2.83;;;23.20;96.80;;;;;;4997392;28;20465;-66
2023/08/29 12:19:44;;;;;;;4.30;3.07;;;23.10;96.90;;;;;;4996191;28;20489;-66
2023/08/29 12:22:11;;;;;;;3.63;2.90;;;23.00;96.60;;;;;;5001379;28;20906;-66
2023/08/29 12:24:39;;;;;;;5.30;3.07;;;23.00;96.90;;;;;;4995950;28;20999;-66
2023/08/29 12:27:08;;;;;;;3.37;3.07;;;23.00;96.60;;;;;;4979618;28;20519;-66
2023/08/29 12:29:35;;;;;;;3.90;2.53;;;22.90;96.20;;;;;;5010212;28;20491;-66
2023/08/29 12:32:02;;;;;;;3.90;3.50;;;22.80;96.10;;;;;;4989663;28;20836;-66
2023/08/29 12:34:29;;;;;;;2.80;2.60;;;22.80;96.10;;;;;;4990209;28;20482;-66
2023/08/29 12:36:56;;;;;;;4.37;3.67;;;22.80;96.50;;;;;;4996977;28;20547;-66
2023/08/29 12:39:23;;;;;;;4.17;3.23;;;22.90;96.50;;;;;;4989600;28;20488;-66
2023/08/29 12:41:50;;;;;;;4.27;3.50;;;22.90;96.20;;;;;;4987679;28;20535;-66
2023/08/29 12:44:19;;;;;;;3.80;2.77;;;23.20;96.30;;;;;;4990027;28;20470;-66
2023/08/29 12:46:46;;;;;;;2.57;2.37;;;23.30;96.00;;;;;;4976988;28;20463;-66
2023/08/29 12:49:13;;;;;;;3.30;2.50;;;23.50;94.90;;;;;;5007949;28;20456;-66